Time;durP1;ratioP1;P1;durP2;ratioP2;P2;SDS_P1;SDS_P2;PMS_P1;PMS_P2;Temp;Humidity;BMP_temperature;BMP_pressure;BME280_temperature;BME280_humidity;BME280_pressure;Samples;Min_cycle;Max_cycle;Signal;HPM_P1;HPM_P2
2021/10/05 00:00:19;;;;;;;3.00;0.40;;;11.30;91.20;;;;;;4895478;29;20060;-75
2021/10/05 00:02:46;;;;;;;2.70;0.40;;;11.30;91.20;;;;;;4880602;29;20048;-75
2021/10/05 00:05:14;;;;;;;0.95;0.30;;;11.30;91.40;;;;;;4891723;29;20057;-75
2021/10/05 00:07:42;;;;;;;1.60;0.50;;;11.30;91.30;;;;;;4878408;29;20053;-75
2021/10/05 00:10:10;;;;;;;0.93;0.35;;;11.30;91.20;;;;;;4878416;29;20533;-75
2021/10/05 00:12:39;;;;;;;1.58;0.35;;;11.30;91.10;;;;;;4879129;29;20428;-75
2021/10/05 00:15:08;;;;;;;0.85;0.40;;;11.40;91.00;;;;;;4881033;29;20060;-75
2021/10/05 00:17:35;;;;;;;0.82;0.30;;;11.50;90.80;;;;;;4880187;29;20068;-75
2021/10/05 00:20:06;;;;;;;1.25;0.30;;;11.50;90.70;;;;;;4878375;29;20057;-75
2021/10/05 00:22:34;;;;;;;0.68;0.20;;;11.50;90.60;;;;;;4861627;29;20064;-75
2021/10/05 00:25:02;;;;;;;1.85;0.40;;;11.40;90.60;;;;;;4878642;29;20495;-75
2021/10/05 00:27:30;;;;;;;0.93;0.22;;;11.40;90.60;;;;;;4878449;29;20037;-75
2021/10/05 00:29:57;;;;;;;0.47;0.15;;;11.40;90.40;;;;;;4878459;29;20053;-75
2021/10/05 00:32:26;;;;;;;1.75;0.40;;;11.30;90.30;;;;;;4883872;29;20065;-75
2021/10/05 00:34:54;;;;;;;0.80;0.20;;;11.30;90.30;;;;;;4888491;29;20049;-76
2021/10/05 00:37:21;;;;;;;0.52;0.30;;;11.20;90.20;;;;;;4884323;29;20052;-75
2021/10/05 00:39:48;;;;;;;0.77;0.32;;;11.20;90.20;;;;;;4898756;29;20059;-75
2021/10/05 00:42:16;;;;;;;0.17;0.10;;;11.20;90.10;;;;;;4883317;29;20052;-75
2021/10/05 00:44:44;;;;;;;0.20;0.20;;;11.20;89.90;;;;;;4893683;29;20051;-75
2021/10/05 00:47:14;;;;;;;0.75;0.20;;;11.30;89.30;;;;;;4882879;29;20064;-75
2021/10/05 00:49:43;;;;;;;0.82;0.20;;;11.30;89.00;;;;;;4890648;29;20048;-75
2021/10/05 00:52:12;;;;;;;0.65;0.10;;;11.30;88.90;;;;;;4865239;29;20060;-75
2021/10/05 00:54:41;;;;;;;0.85;0.22;;;11.30;88.90;;;;;;4881721;29;20041;-75
2021/10/05 00:57:11;;;;;;;1.38;0.10;;;11.20;88.90;;;;;;4881797;29;20053;-75
2021/10/05 00:59:39;;;;;;;1.65;0.20;;;11.20;88.90;;;;;;4886371;29;20048;-75
2021/10/05 01:02:12;;;;;;;0.28;0.20;;;11.20;88.80;;;;;;4879785;29;20056;-76
2021/10/05 01:04:42;;;;;;;0.32;0.20;;;11.20;88.80;;;;;;4882861;29;20400;-75
2021/10/05 01:07:13;;;;;;;0.73;0.20;;;11.20;88.60;;;;;;4900181;29;20064;-75
2021/10/05 01:09:42;;;;;;;0.57;0.20;;;11.20;88.70;;;;;;4899494;29;20487;-75
2021/10/05 01:12:09;;;;;;;0.85;0.30;;;11.10;88.60;;;;;;4901036;29;20049;-75
2021/10/05 01:14:37;;;;;;;1.42;0.43;;;11.10;88.70;;;;;;4895768;29;20060;-76
2021/10/05 01:17:06;;;;;;;0.60;0.30;;;11.00;88.70;;;;;;4881368;29;20479;-77
2021/10/05 01:19:34;;;;;;;0.77;0.30;;;11.00;88.80;;;;;;4898257;29;20065;-77
2021/10/05 01:22:02;;;;;;;1.70;0.47;;;10.90;89.00;;;;;;4898680;29;20052;-77
2021/10/05 01:24:29;;;;;;;0.47;0.22;;;10.80;89.10;;;;;;4899480;29;20061;-75
2021/10/05 01:26:58;;;;;;;2.30;0.30;;;10.80;89.30;;;;;;4881560;29;20079;-75
2021/10/05 01:29:30;;;;;;;1.33;0.30;;;10.70;89.50;;;;;;4900095;29;20053;-75
2021/10/05 01:32:00;;;;;;;0.77;0.28;;;10.70;89.60;;;;;;4879597;29;20053;-75
2021/10/05 01:34:29;;;;;;;0.47;0.20;;;10.70;89.70;;;;;;4879465;29;20049;-75
2021/10/05 01:36:58;;;;;;;0.43;0.30;;;10.60;89.80;;;;;;4899352;29;20049;-75
2021/10/05 01:39:29;;;;;;;1.17;0.50;;;10.60;89.90;;;;;;4898884;29;20345;-75
2021/10/05 01:42:03;;;;;;;0.82;0.30;;;10.50;89.90;;;;;;4899819;29;20052;-75
2021/10/05 01:44:31;;;;;;;1.10;0.43;;;10.50;90.00;;;;;;4898560;29;20111;-75
2021/10/05 01:47:01;;;;;;;1.65;0.40;;;10.40;90.10;;;;;;4899008;29;20072;-75
2021/10/05 01:49:29;;;;;;;1.88;0.63;;;10.40;90.30;;;;;;4890684;29;20056;-75
2021/10/05 01:51:56;;;;;;;1.88;0.30;;;10.30;90.40;;;;;;4882647;29;20052;-75
2021/10/05 01:54:24;;;;;;;0.60;0.47;;;10.30;90.60;;;;;;4882574;29;20068;-74
2021/10/05 01:56:52;;;;;;;0.35;0.35;;;10.20;90.90;;;;;;4864079;29;20068;-75
2021/10/05 01:59:20;;;;;;;0.50;0.40;;;10.20;91.00;;;;;;4874940;29;20447;-74
2021/10/05 02:01:47;;;;;;;0.88;0.40;;;10.20;91.10;;;;;;4872679;29;20049;-74
2021/10/05 02:04:15;;;;;;;1.42;0.57;;;10.20;91.20;;;;;;4898912;29;20049;-75
2021/10/05 02:06:44;;;;;;;1.20;0.50;;;10.20;91.20;;;;;;4897484;29;20048;-75
2021/10/05 02:09:12;;;;;;;1.00;0.70;;;10.20;91.30;;;;;;4866095;29;20068;-75
2021/10/05 02:11:40;;;;;;;1.27;0.60;;;10.20;91.40;;;;;;4905362;29;20511;-74
2021/10/05 02:14:08;;;;;;;1.98;0.90;;;10.20;91.50;;;;;;4901328;29;20048;-75
2021/10/05 02:16:36;;;;;;;1.75;0.60;;;10.20;91.40;;;;;;4881441;29;20053;-74
2021/10/05 02:19:05;;;;;;;2.15;0.65;;;10.20;91.50;;;;;;4876616;29;20431;-75
2021/10/05 02:21:33;;;;;;;1.20;0.70;;;10.30;91.50;;;;;;4881468;29;20052;-75
2021/10/05 02:26:51;;;;;;;1.95;0.70;;;10.30;91.60;;;;;;4889291;29;20555;-75
2021/10/05 02:29:20;;;;;;;1.98;0.70;;;10.40;91.60;;;;;;4898580;29;20142;-75
2021/10/05 02:31:48;;;;;;;1.10;0.63;;;10.40;91.60;;;;;;4896139;29;20071;-75
2021/10/05 02:34:16;;;;;;;2.15;0.65;;;10.40;91.50;;;;;;4886581;29;20048;-75
2021/10/05 02:36:44;;;;;;;2.47;0.82;;;10.30;91.50;;;;;;4898678;29;20049;-75
2021/10/05 02:39:12;;;;;;;2.38;0.60;;;10.30;91.50;;;;;;4898342;29;20060;-75
2021/10/05 02:41:40;;;;;;;0.88;0.60;;;10.30;91.80;;;;;;4898662;29;20498;-75
2021/10/05 02:44:08;;;;;;;2.28;0.70;;;10.30;91.90;;;;;;4881709;29;20067;-75
2021/10/05 02:46:36;;;;;;;1.33;0.60;;;10.30;91.90;;;;;;4889490;29;20056;-75
2021/10/05 02:49:04;;;;;;;1.25;0.63;;;10.30;91.80;;;;;;4893854;29;20517;-75
2021/10/05 02:51:32;;;;;;;2.20;0.85;;;10.30;91.90;;;;;;4893985;29;20060;-75
2021/10/05 02:53:59;;;;;;;1.98;0.77;;;10.20;92.00;;;;;;4880297;29;20056;-75
2021/10/05 02:56:27;;;;;;;3.35;0.70;;;10.20;92.30;;;;;;4879628;29;20056;-75
2021/10/05 02:58:54;;;;;;;2.95;0.77;;;10.20;92.30;;;;;;4883356;29;20055;-75
2021/10/05 03:01:22;;;;;;;1.08;0.70;;;10.20;92.20;;;;;;4856292;29;20045;-75
2021/10/05 03:03:50;;;;;;;0.82;0.75;;;10.20;92.00;;;;;;4896370;29;20060;-75
2021/10/05 03:06:18;;;;;;;3.85;0.68;;;10.10;92.20;;;;;;4889745;29;20052;-75
2021/10/05 03:08:45;;;;;;;7.07;1.00;;;10.00;92.40;;;;;;4879114;29;20063;-75
2021/10/05 03:11:13;;;;;;;3.58;0.70;;;9.90;92.60;;;;;;4878918;29;20057;-75
2021/10/05 03:13:40;;;;;;;1.65;0.88;;;10.00;92.70;;;;;;4882239;29;20060;-75
2021/10/05 03:16:08;;;;;;;4.53;0.70;;;9.90;92.80;;;;;;4893522;29;20053;-75
2021/10/05 03:18:38;;;;;;;2.42;0.85;;;9.90;92.80;;;;;;4879318;29;20057;-75
2021/10/05 03:21:05;;;;;;;3.05;1.00;;;9.90;92.60;;;;;;4879881;29;20053;-75
2021/10/05 03:23:33;;;;;;;3.05;0.88;;;9.90;92.60;;;;;;4863167;29;20057;-75
2021/10/05 03:26:03;;;;;;;5.22;0.80;;;9.80;92.70;;;;;;4880235;29;20060;-75
2021/10/05 03:28:32;;;;;;;1.42;0.73;;;9.70;92.70;;;;;;4877683;29;20422;-75
2021/10/05 03:31:00;;;;;;;1.98;0.93;;;9.70;92.60;;;;;;4890530;29;20051;-75
2021/10/05 03:33:28;;;;;;;4.80;1.63;;;9.60;92.90;;;;;;4897670;29;20045;-75
2021/10/05 03:35:55;;;;;;;3.08;1.00;;;9.50;93.00;;;;;;4897250;29;20076;-76
2021/10/05 03:38:23;;;;;;;2.17;1.02;;;9.50;93.10;;;;;;4880698;29;20488;-76
2021/10/05 03:40:51;;;;;;;2.53;1.08;;;9.30;93.10;;;;;;4895544;29;20169;-75
2021/10/05 03:43:18;;;;;;;2.90;1.20;;;9.30;93.20;;;;;;4897462;29;20053;-75
2021/10/05 03:45:46;;;;;;;2.88;1.20;;;9.30;93.20;;;;;;4893206;29;20086;-76
2021/10/05 03:48:14;;;;;;;3.42;1.00;;;9.20;93.30;;;;;;4900883;29;20041;-76
2021/10/05 03:50:41;;;;;;;3.42;1.20;;;9.20;93.30;;;;;;4885915;29;20045;-74
2021/10/05 03:53:11;;;;;;;6.35;1.30;;;9.10;93.30;;;;;;4895701;29;20419;-75
2021/10/05 03:55:38;;;;;;;1.85;1.45;;;9.00;93.40;;;;;;4877278;29;20544;-75
2021/10/05 03:58:06;;;;;;;5.40;1.70;;;9.00;93.20;;;;;;4897614;29;20064;-75
2021/10/05 04:00:33;;;;;;;4.70;1.60;;;8.90;93.20;;;;;;4881316;29;20490;-75
2021/10/05 04:03:01;;;;;;;3.97;1.50;;;8.80;93.10;;;;;;4878688;29;20388;-75
2021/10/05 04:05:31;;;;;;;6.63;2.13;;;8.80;93.10;;;;;;4879174;29;20056;-75
2021/10/05 04:07:58;;;;;;;8.27;2.13;;;8.70;93.40;;;;;;4878802;29;20049;-75
2021/10/05 04:10:26;;;;;;;5.45;2.30;;;8.60;93.40;;;;;;4878882;29;20061;-75
2021/10/05 04:12:54;;;;;;;7.30;2.50;;;8.60;93.30;;;;;;4878294;29;20060;-74
2021/10/05 04:15:22;;;;;;;5.28;1.65;;;8.50;93.40;;;;;;4878589;29;20052;-75
2021/10/05 04:17:50;;;;;;;5.63;1.67;;;8.50;93.80;;;;;;4846617;29;20057;-75
2021/10/05 04:20:17;;;;;;;5.05;2.30;;;8.50;93.70;;;;;;4892056;29;20056;-75
2021/10/05 04:22:45;;;;;;;2.65;1.75;;;8.40;93.70;;;;;;4901079;29;20064;-75
2021/10/05 04:25:12;;;;;;;5.55;2.05;;;8.40;93.80;;;;;;4903292;29;20068;-74
2021/10/05 04:27:40;;;;;;;3.67;1.63;;;8.40;94.10;;;;;;4893201;29;20045;-75
2021/10/05 04:30:10;;;;;;;7.78;1.90;;;8.40;94.20;;;;;;4895999;29;20379;-75
2021/10/05 04:32:38;;;;;;;5.38;2.30;;;8.40;94.20;;;;;;4886236;29;20407;-75
2021/10/05 04:35:06;;;;;;;5.38;1.80;;;8.30;94.10;;;;;;4867984;29;20049;-76
2021/10/05 04:37:34;;;;;;;5.72;2.00;;;8.40;94.30;;;;;;4884561;29;20418;-75
2021/10/05 04:40:03;;;;;;;4.47;1.90;;;8.30;94.20;;;;;;4898581;29;20045;-75
2021/10/05 04:42:30;;;;;;;6.63;2.28;;;8.30;94.10;;;;;;4884529;29;20057;-75
2021/10/05 04:44:58;;;;;;;6.07;1.63;;;8.30;94.10;;;;;;4886336;29;20056;-75
2021/10/05 04:47:25;;;;;;;4.78;1.98;;;8.30;94.20;;;;;;4886610;29;20057;-75
2021/10/05 04:49:53;;;;;;;5.95;2.10;;;8.30;94.50;;;;;;4890845;29;20056;-74
2021/10/05 04:52:21;;;;;;;3.47;1.90;;;8.40;94.80;;;;;;4867638;29;20049;-75
2021/10/05 04:54:48;;;;;;;4.35;1.60;;;8.50;95.00;;;;;;4898801;29;20053;-75
2021/10/05 04:57:16;;;;;;;7.43;1.73;;;8.60;95.00;;;;;;4898425;29;20430;-75
2021/10/05 04:59:44;;;;;;;7.18;1.30;;;8.60;94.80;;;;;;4892468;29;20068;-75
2021/10/05 05:02:11;;;;;;;3.38;1.33;;;8.70;94.60;;;;;;4902509;29;20060;-75
2021/10/05 05:04:39;;;;;;;3.42;1.20;;;8.70;94.30;;;;;;4903103;29;20045;-75
2021/10/05 05:07:07;;;;;;;5.72;1.10;;;8.80;94.10;;;;;;4886287;29;20063;-75
2021/10/05 05:09:34;;;;;;;3.58;0.80;;;8.90;93.90;;;;;;4885888;29;20071;-76
2021/10/05 05:12:02;;;;;;;4.85;1.27;;;8.90;93.80;;;;;;4914375;29;20478;-76
2021/10/05 05:14:29;;;;;;;4.82;1.13;;;8.90;93.60;;;;;;4888830;29;20060;-76
2021/10/05 05:16:57;;;;;;;3.42;1.05;;;9.00;93.50;;;;;;4878512;29;20041;-76
2021/10/05 05:19:25;;;;;;;8.70;1.02;;;9.10;93.40;;;;;;4892530;29;20057;-76
2021/10/05 05:21:53;;;;;;;3.60;0.80;;;9.10;93.20;;;;;;4866873;29;20053;-76
2021/10/05 05:24:20;;;;;;;5.70;1.10;;;9.10;93.10;;;;;;4883955;29;20056;-75
2021/10/05 05:26:48;;;;;;;3.50;1.08;;;9.20;92.80;;;;;;4891422;29;20506;-75
2021/10/05 05:29:16;;;;;;;2.20;0.82;;;9.20;92.60;;;;;;4888710;29;20052;-76
2021/10/05 05:31:44;;;;;;;3.15;0.75;;;9.30;92.50;;;;;;4910814;29;20058;-75
2021/10/05 05:34:12;;;;;;;2.65;0.70;;;9.30;92.20;;;;;;4887773;29;20061;-75
2021/10/05 05:36:39;;;;;;;10.57;0.70;;;9.30;92.00;;;;;;4864507;29;20400;-76
2021/10/05 05:39:07;;;;;;;5.88;0.90;;;9.30;91.90;;;;;;4864062;29;20053;-76
2021/10/05 05:41:34;;;;;;;3.67;0.82;;;9.30;91.80;;;;;;4880295;29;20064;-75
2021/10/05 05:44:02;;;;;;;6.30;1.67;;;9.30;91.80;;;;;;4873559;29;20052;-75
2021/10/05 05:46:30;;;;;;;5.93;0.80;;;9.30;91.90;;;;;;4901584;29;20064;-75
2021/10/05 05:48:58;;;;;;;8.70;1.40;;;9.30;92.00;;;;;;4892781;29;20056;-75
2021/10/05 05:51:25;;;;;;;2.10;0.47;;;9.30;92.00;;;;;;4880825;29;20427;-75
2021/10/05 05:53:53;;;;;;;2.80;0.40;;;9.30;92.10;;;;;;4887649;29;20427;-75
2021/10/05 05:56:20;;;;;;;4.38;0.77;;;9.30;92.20;;;;;;4905062;29;20053;-75
2021/10/05 05:58:49;;;;;;;2.22;0.38;;;9.30;92.20;;;;;;4881357;29;20065;-75
2021/10/05 06:01:17;;;;;;;1.88;0.30;;;9.30;92.40;;;;;;4881763;29;20072;-76
2021/10/05 06:03:46;;;;;;;1.02;0.20;;;9.30;92.30;;;;;;4878839;29;20049;-76
2021/10/05 06:06:13;;;;;;;2.28;0.70;;;9.30;92.30;;;;;;4880608;29;20511;-76
2021/10/05 06:08:42;;;;;;;2.65;0.30;;;9.30;92.30;;;;;;4870980;29;20052;-76
2021/10/05 06:11:10;;;;;;;3.72;1.02;;;9.30;92.50;;;;;;4898764;29;20222;-76
2021/10/05 06:13:38;;;;;;;4.70;1.13;;;9.30;92.60;;;;;;4904819;29;20053;-74
2021/10/05 06:16:05;;;;;;;4.93;1.10;;;9.20;92.70;;;;;;4880691;29;20041;-76
2021/10/05 06:18:33;;;;;;;3.05;0.70;;;9.30;92.70;;;;;;4864701;29;20053;-76
2021/10/05 06:21:00;;;;;;;2.70;0.65;;;9.30;92.80;;;;;;4882340;29;20060;-77
2021/10/05 06:23:28;;;;;;;1.67;0.55;;;9.30;92.80;;;;;;4881768;29;20057;-76
2021/10/05 06:25:57;;;;;;;1.23;0.40;;;9.30;92.70;;;;;;4898664;29;20112;-77
2021/10/05 06:28:24;;;;;;;2.15;0.32;;;9.30;92.60;;;;;;4865210;29;20052;-76
2021/10/05 06:30:52;;;;;;;2.80;0.50;;;9.30;92.70;;;;;;4905326;29;20049;-77
2021/10/05 06:33:20;;;;;;;9.65;0.80;;;9.30;92.80;;;;;;4898694;29;20049;-76
2021/10/05 06:35:47;;;;;;;1.35;0.40;;;9.30;92.90;;;;;;4885231;29;20051;-76
2021/10/05 06:38:15;;;;;;;1.98;0.40;;;9.30;93.00;;;;;;4913919;29;20487;-76
2021/10/05 06:40:45;;;;;;;2.08;0.40;;;9.30;93.00;;;;;;4883090;29;20053;-76
2021/10/05 06:43:13;;;;;;;1.70;0.45;;;9.20;93.00;;;;;;4903770;29;20056;-76
2021/10/05 06:45:40;;;;;;;1.80;0.60;;;9.20;93.00;;;;;;4895106;29;20065;-80
2021/10/05 06:48:08;;;;;;;3.70;0.35;;;9.20;93.00;;;;;;4900071;29;20505;-78
2021/10/05 06:50:36;;;;;;;1.85;0.45;;;9.20;93.00;;;;;;4880687;29;20061;-77
2021/10/05 06:53:04;;;;;;;2.50;0.85;;;9.30;93.00;;;;;;4879548;29;20053;-77
2021/10/05 06:55:32;;;;;;;0.22;0.20;;;9.20;93.00;;;;;;4890273;29;20052;-76
2021/10/05 06:58:00;;;;;;;1.52;0.65;;;9.30;93.10;;;;;;4912997;29;20052;-77
2021/10/05 07:00:28;;;;;;;2.38;0.50;;;9.30;93.00;;;;;;4899238;29;20040;-77
2021/10/05 07:02:56;;;;;;;2.90;0.40;;;9.30;93.00;;;;;;4886789;29;20060;-77
2021/10/05 07:05:24;;;;;;;1.85;0.47;;;9.30;92.90;;;;;;4919699;29;20055;-75
2021/10/05 07:07:52;;;;;;;2.83;0.63;;;9.30;92.90;;;;;;4898742;29;20053;-77
2021/10/05 07:10:22;;;;;;;0.52;0.30;;;9.30;92.90;;;;;;4865194;29;20053;-78
2021/10/05 07:13:09;;;;;;;3.30;0.47;;;9.30;92.80;;;;;;4895957;29;20143;-78
2021/10/05 07:15:37;;;;;;;0.95;0.30;;;9.30;92.80;;;;;;4887222;29;20048;-78
2021/10/05 07:18:04;;;;;;;1.50;0.60;;;9.30;92.80;;;;;;4902934;29;20060;-77
2021/10/05 07:20:32;;;;;;;1.75;0.40;;;9.30;92.80;;;;;;4885219;29;20037;-77
2021/10/05 07:23:00;;;;;;;1.20;0.35;;;9.30;92.70;;;;;;4909647;29;20056;-77
2021/10/05 07:25:29;;;;;;;2.28;0.30;;;9.30;92.70;;;;;;4917286;29;20056;-76
2021/10/05 07:27:58;;;;;;;1.75;0.50;;;9.30;92.80;;;;;;4906041;29;20049;-77
2021/10/05 07:30:27;;;;;;;2.05;0.40;;;9.40;92.70;;;;;;4878499;29;20060;-77
2021/10/05 07:33:03;;;;;;;2.15;0.88;;;9.50;92.60;;;;;;4877964;29;20132;-78
2021/10/05 07:35:32;;;;;;;0.50;0.30;;;9.50;92.40;;;;;;4879590;29;20041;-77
2021/10/05 07:38:00;;;;;;;1.40;0.52;;;9.60;92.30;;;;;;4863756;29;20064;-82
2021/10/05 07:40:29;;;;;;;6.18;0.65;;;9.60;92.20;;;;;;4863098;29;20049;-78
2021/10/05 07:42:59;;;;;;;1.52;0.50;;;9.60;92.20;;;;;;4863126;29;20431;-78
2021/10/05 07:45:29;;;;;;;1.48;0.55;;;9.60;92.40;;;;;;4863003;29;20045;-78
2021/10/05 07:47:56;;;;;;;0.40;0.20;;;9.60;92.40;;;;;;4880487;29;20063;-78
2021/10/05 07:50:25;;;;;;;0.95;0.70;;;9.70;92.50;;;;;;4867307;29;20109;-77
2021/10/05 07:52:58;;;;;;;0.82;0.60;;;9.70;92.50;;;;;;4848462;29;20060;-77
2021/10/05 07:55:28;;;;;;;2.83;0.77;;;9.80;92.60;;;;;;4861954;29;20496;-77
2021/10/05 07:57:57;;;;;;;2.67;1.10;;;9.90;92.60;;;;;;4878807;29;20060;-77
2021/10/05 08:00:24;;;;;;;1.50;1.40;;;10.00;92.50;;;;;;4878612;29;20048;-77
2021/10/05 08:02:52;;;;;;;3.25;1.55;;;10.00;92.40;;;;;;4878633;29;20484;-78
2021/10/05 08:05:20;;;;;;;5.07;1.75;;;10.10;92.30;;;;;;4877494;29;20139;-78
2021/10/05 08:08:01;;;;;;;7.78;1.83;;;10.10;92.40;;;;;;4846609;29;20060;-77
2021/10/05 08:10:28;;;;;;;6.40;2.00;;;10.30;92.40;;;;;;4846530;29;20049;-77
2021/10/05 08:12:56;;;;;;;2.63;1.77;;;10.30;92.20;;;;;;4878637;29;20411;-78
2021/10/05 08:15:25;;;;;;;2.65;1.80;;;10.40;92.10;;;;;;4862096;29;20121;-78
2021/10/05 08:17:53;;;;;;;4.03;2.05;;;10.50;92.00;;;;;;4878491;29;20059;-79
2021/10/05 08:20:22;;;;;;;5.55;2.88;;;10.50;91.90;;;;;;4878510;29;20049;-78
2021/10/05 08:22:50;;;;;;;3.03;2.72;;;10.50;91.90;;;;;;4861893;29;20053;-77
2021/10/05 08:25:18;;;;;;;4.22;1.90;;;10.50;91.90;;;;;;4878472;29;20049;-77
2021/10/05 08:27:47;;;;;;;3.53;1.88;;;10.50;91.90;;;;;;4878478;29;20056;-78
2021/10/05 08:30:16;;;;;;;4.18;2.00;;;10.50;91.70;;;;;;4861549;29;20429;-77
2021/10/05 08:32:46;;;;;;;3.72;2.65;;;10.40;91.80;;;;;;4906190;29;20059;-77
2021/10/05 08:35:19;;;;;;;4.90;3.47;;;10.40;91.90;;;;;;4915639;29;20044;-78
2021/10/05 08:37:48;;;;;;;3.80;3.38;;;10.40;91.90;;;;;;4905045;29;20487;-78
2021/10/05 08:40:17;;;;;;;3.90;3.60;;;10.50;92.00;;;;;;4892003;29;20513;-78
2021/10/05 08:42:45;;;;;;;5.68;4.70;;;10.60;91.90;;;;;;4899460;29;20056;-78
2021/10/05 08:45:13;;;;;;;7.10;6.15;;;10.60;91.80;;;;;;4925122;29;20044;-78
2021/10/05 08:47:41;;;;;;;7.20;6.60;;;10.60;91.80;;;;;;4920470;29;20052;-77
2021/10/05 08:50:14;;;;;;;10.93;8.95;;;10.60;91.90;;;;;;4916530;29;20490;-78
2021/10/05 08:52:44;;;;;;;8.18;7.45;;;10.60;92.00;;;;;;4915940;29;20044;-77
2021/10/05 08:55:13;;;;;;;7.43;6.65;;;10.70;92.00;;;;;;4915384;29;20050;-78
2021/10/05 08:57:41;;;;;;;7.88;6.93;;;10.70;92.00;;;;;;4915282;29;20616;-78
2021/10/05 09:00:09;;;;;;;6.43;5.65;;;10.80;92.00;;;;;;4914813;29;20048;-76
2021/10/05 09:02:51;;;;;;;4.40;4.00;;;10.80;92.00;;;;;;4915169;29;20121;-77
2021/10/05 09:05:25;;;;;;;3.10;2.90;;;10.80;92.10;;;;;;4912424;29;20393;-77
2021/10/05 09:07:56;;;;;;;3.13;2.80;;;11.00;91.70;;;;;;4889174;29;20047;-78
2021/10/05 09:10:28;;;;;;;2.67;2.47;;;11.00;91.40;;;;;;4886536;29;20083;-76
2021/10/05 09:12:55;;;;;;;2.03;1.83;;;11.10;91.40;;;;;;4919022;29;20052;-77
2021/10/05 09:15:23;;;;;;;1.98;1.60;;;11.10;91.00;;;;;;4901369;29;20550;-77
2021/10/05 09:17:57;;;;;;;4.47;1.65;;;11.10;90.80;;;;;;4918046;29;20048;-78
2021/10/05 09:20:34;;;;;;;2.88;2.33;;;11.20;90.60;;;;;;4918072;29;20060;-77
2021/10/05 09:23:01;;;;;;;1.67;1.58;;;11.30;90.60;;;;;;4917710;29;20465;-77
2021/10/05 09:25:33;;;;;;;3.40;1.90;;;11.30;90.50;;;;;;4917391;29;20399;-77
2021/10/05 09:28:12;;;;;;;2.78;1.90;;;11.30;90.40;;;;;;4918243;29;20060;-77
2021/10/05 09:30:41;;;;;;;2.90;2.70;;;11.30;90.30;;;;;;4917789;29;20456;-77
2021/10/05 09:33:09;;;;;;;3.03;2.60;;;11.30;90.30;;;;;;4918513;29;20407;-77
2021/10/05 09:35:45;;;;;;;3.92;2.10;;;11.40;90.30;;;;;;4918884;29;20395;-77
2021/10/05 09:38:20;;;;;;;2.53;2.30;;;11.40;90.10;;;;;;4901202;29;20048;-77
2021/10/05 09:41:05;;;;;;;5.40;2.40;;;11.40;89.80;;;;;;4917539;29;20047;-77
2021/10/05 09:43:33;;;;;;;5.22;2.20;;;11.40;89.70;;;;;;4917860;29;20048;-77
2021/10/05 09:46:17;;;;;;;4.95;2.70;;;11.40;89.90;;;;;;4917428;29;20367;-78
2021/10/05 09:48:45;;;;;;;3.50;1.50;;;11.50;90.30;;;;;;4866668;29;20049;-77
2021/10/05 09:51:20;;;;;;;3.03;0.98;;;11.70;90.20;;;;;;4866982;29;20060;-77
2021/10/05 09:53:48;;;;;;;4.15;0.80;;;11.80;89.60;;;;;;4882017;29;20270;-78
2021/10/05 09:56:16;;;;;;;5.07;1.10;;;11.90;87.40;;;;;;4908019;29;20059;-77
2021/10/05 09:58:43;;;;;;;4.82;1.00;;;11.90;87.40;;;;;;4910587;29;20052;-77
2021/10/05 10:01:11;;;;;;;5.10;0.93;;;11.80;87.60;;;;;;4884570;29;20053;-77
2021/10/05 10:03:41;;;;;;;5.40;0.80;;;11.90;87.60;;;;;;4917924;29;20044;-78
2021/10/05 10:06:08;;;;;;;6.28;0.88;;;11.90;86.70;;;;;;4918132;29;20040;-78
2021/10/05 10:08:37;;;;;;;3.92;1.00;;;12.00;86.80;;;;;;4917862;29;20066;-78
2021/10/05 10:11:04;;;;;;;6.80;1.20;;;12.00;87.00;;;;;;4900339;29;20055;-78
2021/10/05 10:13:33;;;;;;;4.72;1.00;;;12.20;86.60;;;;;;4900405;29;20059;-78
2021/10/05 10:16:01;;;;;;;6.40;0.80;;;12.20;86.20;;;;;;4900960;29;20048;-78
2021/10/05 10:18:28;;;;;;;2.92;0.52;;;12.30;85.60;;;;;;4917662;29;20063;-78
2021/10/05 10:21:08;;;;;;;5.70;0.80;;;12.20;84.60;;;;;;4917898;29;20056;-78
2021/10/05 10:23:39;;;;;;;2.97;0.60;;;12.10;84.70;;;;;;4916841;29;20056;-78
2021/10/05 10:26:19;;;;;;;7.82;0.88;;;12.00;84.50;;;;;;4924888;29;20126;-79
2021/10/05 10:28:47;;;;;;;5.38;1.20;;;11.80;85.00;;;;;;4926859;29;20048;-78
2021/10/05 10:31:27;;;;;;;2.10;0.55;;;11.80;85.70;;;;;;4902054;29;20055;-79
2021/10/05 10:33:55;;;;;;;1.65;0.60;;;11.60;86.30;;;;;;4899907;29;20059;-78
2021/10/05 10:36:41;;;;;;;1.85;0.60;;;11.30;87.10;;;;;;4916109;29;20047;-78
2021/10/05 10:39:13;;;;;;;5.00;1.00;;;11.20;87.70;;;;;;4898611;29;20064;-77
2021/10/05 10:41:46;;;;;;;7.05;0.93;;;11.00;87.90;;;;;;4916298;29;20040;-77
2021/10/05 10:44:19;;;;;;;4.88;1.00;;;11.00;88.20;;;;;;4916183;29;20044;-78
2021/10/05 10:46:47;;;;;;;5.93;0.90;;;10.90;88.40;;;;;;4899707;29;20052;-78
2021/10/05 10:49:17;;;;;;;16.08;1.00;;;10.80;88.80;;;;;;4899720;29;20051;-77
2021/10/05 10:51:48;;;;;;;5.07;0.55;;;11.00;88.80;;;;;;4916565;29;20047;-77
2021/10/05 10:54:18;;;;;;;1.88;0.75;;;11.00;88.30;;;;;;4911498;29;20422;-78
2021/10/05 10:56:56;;;;;;;3.55;0.70;;;11.10;88.20;;;;;;4916517;29;20064;-78
2021/10/05 10:59:26;;;;;;;7.90;1.02;;;11.20;87.80;;;;;;4916040;29;20383;-78
2021/10/05 11:01:58;;;;;;;7.15;1.27;;;11.20;87.70;;;;;;4916943;29;20055;-78
2021/10/05 11:04:26;;;;;;;3.63;0.93;;;11.30;87.90;;;;;;4900242;29;20060;-77
2021/10/05 11:06:56;;;;;;;4.72;1.23;;;11.40;87.60;;;;;;4916724;29;20048;-77
2021/10/05 11:09:29;;;;;;;8.73;1.85;;;11.50;87.10;;;;;;4917528;29;20518;-77
2021/10/05 11:11:57;;;;;;;10.48;1.40;;;11.50;87.30;;;;;;4916976;29;20115;-78
2021/10/05 11:14:37;;;;;;;9.35;1.40;;;11.30;87.60;;;;;;4917270;29;20063;-78
2021/10/05 11:17:08;;;;;;;3.80;0.77;;;11.20;88.10;;;;;;4916779;29;20506;-78
2021/10/05 11:19:38;;;;;;;2.97;0.93;;;11.00;88.70;;;;;;4916458;29;20529;-77
2021/10/05 11:22:15;;;;;;;7.05;1.48;;;10.90;88.90;;;;;;4916342;29;20474;-77
2021/10/05 11:24:48;;;;;;;3.60;0.85;;;10.80;89.10;;;;;;4915470;29;20051;-76
2021/10/05 11:27:23;;;;;;;5.40;1.37;;;10.80;89.40;;;;;;4915481;29;20040;-76
2021/10/05 11:29:57;;;;;;;6.07;1.23;;;10.70;89.40;;;;;;4912257;29;20056;-75
2021/10/05 11:32:25;;;;;;;4.13;0.90;;;10.70;89.70;;;;;;4915382;29;20056;-75
2021/10/05 11:34:53;;;;;;;12.23;1.40;;;10.80;89.70;;;;;;4914144;29;20059;-76
2021/10/05 11:37:21;;;;;;;6.57;1.42;;;10.80;89.60;;;;;;4915146;29;20384;-75
2021/10/05 11:39:50;;;;;;;7.13;0.95;;;10.80;89.40;;;;;;4882460;29;20504;-76
2021/10/05 11:42:23;;;;;;;5.90;0.95;;;10.80;89.30;;;;;;4914644;29;20520;-76
2021/10/05 11:45:00;;;;;;;5.95;0.90;;;10.70;89.40;;;;;;4915050;29;20040;-76
2021/10/05 11:47:29;;;;;;;3.05;0.85;;;10.60;89.80;;;;;;4895977;29;20047;-76
2021/10/05 11:50:03;;;;;;;4.38;1.05;;;10.60;89.80;;;;;;4919443;29;20056;-76
2021/10/05 11:52:35;;;;;;;5.82;1.00;;;10.50;89.70;;;;;;4916678;29;20053;-75
2021/10/05 11:55:04;;;;;;;3.40;0.98;;;10.50;90.00;;;;;;4915597;29;20052;-75
2021/10/05 11:57:37;;;;;;;4.78;0.85;;;10.50;90.10;;;;;;4915009;29;20051;-77
2021/10/05 12:00:07;;;;;;;5.50;1.08;;;10.50;90.10;;;;;;4898104;29;20063;-77
2021/10/05 12:02:40;;;;;;;5.53;1.23;;;10.40;90.70;;;;;;4893230;29;20051;-76
2021/10/05 12:05:23;;;;;;;3.97;1.23;;;10.30;91.20;;;;;;4899371;29;20048;-75
2021/10/05 12:07:51;;;;;;;2.50;0.73;;;10.30;91.60;;;;;;4915550;29;20502;-75
2021/10/05 12:10:19;;;;;;;6.68;1.35;;;10.40;91.70;;;;;;4916346;29;20048;-74
2021/10/05 12:12:46;;;;;;;9.30;1.50;;;10.50;91.50;;;;;;4915667;29;20059;-74
2021/10/05 12:15:17;;;;;;;7.80;1.17;;;10.60;91.30;;;;;;4916430;29;20044;-74
2021/10/05 12:18:06;;;;;;;7.65;1.42;;;10.70;91.20;;;;;;4898880;29;20056;-74
2021/10/05 12:21:05;;;;;;;4.90;1.25;;;10.70;91.10;;;;;;4915839;29;20055;-74
2021/10/05 12:23:33;;;;;;;5.60;1.15;;;10.80;90.60;;;;;;4915849;29;20071;-75
2021/10/05 12:26:11;;;;;;;7.68;1.08;;;10.70;90.10;;;;;;4916085;29;20056;-75
2021/10/05 12:28:53;;;;;;;2.60;0.80;;;10.60;89.00;;;;;;4915922;29;20052;-74
2021/10/05 12:31:20;;;;;;;3.47;0.85;;;10.40;88.40;;;;;;4915899;29;20055;-76
2021/10/05 12:33:58;;;;;;;2.35;0.60;;;10.20;88.80;;;;;;4882653;29;20063;-74
2021/10/05 12:36:29;;;;;;;2.83;0.80;;;10.10;89.30;;;;;;4915634;29;20430;-75
2021/10/05 12:39:08;;;;;;;4.30;1.10;;;10.10;89.90;;;;;;4915469;29;20063;-74
2021/10/05 12:41:35;;;;;;;3.70;1.08;;;10.10;89.90;;;;;;4898755;29;20048;-74
2021/10/05 12:44:13;;;;;;;4.28;1.20;;;10.10;90.20;;;;;;4919672;29;20060;-74
2021/10/05 12:46:41;;;;;;;10.35;1.30;;;10.20;90.40;;;;;;4917826;29;20414;-74
2021/10/05 12:49:11;;;;;;;4.93;1.00;;;10.20;90.00;;;;;;4919398;29;20060;-74
2021/10/05 12:51:45;;;;;;;5.68;1.15;;;10.30;89.90;;;;;;4902673;29;20479;-74
2021/10/05 12:54:13;;;;;;;8.73;1.30;;;10.30;90.20;;;;;;4919335;29;20060;-75
2021/10/05 12:56:40;;;;;;;7.57;1.75;;;10.30;90.10;;;;;;4919341;29;20406;-74
2021/10/05 12:59:10;;;;;;;6.45;1.60;;;10.30;90.10;;;;;;4908227;29;20499;-74
2021/10/05 13:01:38;;;;;;;10.40;1.83;;;10.30;90.20;;;;;;4917150;29;20379;-74
2021/10/05 13:04:08;;;;;;;7.28;1.50;;;10.30;90.40;;;;;;4919106;29;20048;-74